createdAt,value
2018-04-02T00:02:07.010Z,486.40
2018-04-02T00:04:36.556Z,486.40
2018-04-02T00:07:06.218Z,486.40
2018-04-02T00:09:37.375Z,461.70
2018-04-02T00:12:07.004Z,486.40
2018-04-02T00:14:38.008Z,461.70
2018-04-02T00:17:07.636Z,461.70
2018-04-02T00:19:37.372Z,461.70
2018-04-02T00:22:08.461Z,486.40
2018-04-02T00:24:38.123Z,486.40
2018-04-02T00:27:07.664Z,461.70
2018-04-02T00:29:37.224Z,461.70
2018-04-02T00:32:06.771Z,461.70
2018-04-02T00:34:37.884Z,461.70
2018-04-02T00:37:07.475Z,486.40
2018-04-02T00:39:38.606Z,461.70
2018-04-02T00:42:08.187Z,461.70
2018-04-02T00:44:37.791Z,461.70
2018-04-02T00:47:07.402Z,461.70
2018-04-02T00:49:36.963Z,461.70
2018-04-02T00:52:06.500Z,461.70
2018-04-02T00:54:36.101Z,461.70
2018-04-02T00:57:05.684Z,461.70
2018-04-02T00:59:35.225Z,461.70
2018-04-02T01:02:04.901Z,461.70
2018-04-02T01:04:34.492Z,461.70
2018-04-02T01:07:04.107Z,461.70
2018-04-02T01:09:33.833Z,461.70
2018-04-02T01:12:03.460Z,461.70
2018-04-02T01:14:34.668Z,461.70
2018-04-02T01:17:04.182Z,461.70
2018-04-02T01:19:34.128Z,461.70
2018-04-02T01:22:03.835Z,461.70
2018-04-02T01:24:33.389Z,461.70
2018-04-02T01:27:03.072Z,461.70
2018-04-02T01:29:32.700Z,461.70
2018-04-02T01:32:02.652Z,461.70
2018-04-02T01:34:32.207Z,461.70
2018-04-02T01:37:03.287Z,461.70
2018-04-02T01:39:32.862Z,461.70
2018-04-02T01:42:02.474Z,461.70
2018-04-02T01:44:32.175Z,461.70
2018-04-02T01:47:01.875Z,461.70
2018-04-02T01:49:32.964Z,461.70
2018-04-02T01:52:02.570Z,461.70
2018-04-02T01:54:32.204Z,461.70
2018-04-02T01:57:01.783Z,461.70
2018-04-02T01:59:31.461Z,461.70
2018-04-02T02:02:03.649Z,461.70
2018-04-02T02:04:33.248Z,461.70
2018-04-02T02:07:02.891Z,461.70
2018-04-02T02:09:32.528Z,461.70
2018-04-02T02:12:02.272Z,461.70
2018-04-02T02:14:32.177Z,461.70
2018-04-02T02:17:03.325Z,461.70
2018-04-02T02:19:32.920Z,461.70
2018-04-02T02:22:02.496Z,461.70
2018-04-02T02:24:32.060Z,461.70
2018-04-02T02:27:01.700Z,461.70
2018-04-02T02:29:31.247Z,461.70
2018-04-02T02:32:00.866Z,461.70
2018-04-02T02:34:30.495Z,461.70
2018-04-02T02:37:01.649Z,461.70
2018-04-02T02:39:31.267Z,461.70
2018-04-02T02:42:01.164Z,461.70
2018-04-02T02:44:30.896Z,461.70
2018-04-02T02:47:00.672Z,461.70
2018-04-02T02:49:30.289Z,486.40
2018-04-02T02:51:59.896Z,461.70
2018-04-02T02:54:31.044Z,461.70
2018-04-02T02:57:00.632Z,461.70
2018-04-02T02:59:30.236Z,461.70
2018-04-02T03:01:59.802Z,461.70
2018-04-02T03:04:29.361Z,461.70
2018-04-02T03:06:59.032Z,461.70
2018-04-02T03:09:28.581Z,461.70
2018-04-02T03:11:58.170Z,461.70
2018-04-02T03:14:27.732Z,461.70
2018-04-02T03:16:58.872Z,461.70
2018-04-02T03:19:30.099Z,461.70
2018-04-02T03:21:59.704Z,461.70
2018-04-02T03:24:29.350Z,461.70
2018-04-02T03:26:58.951Z,461.70
2018-04-02T03:29:28.523Z,461.70
2018-04-02T03:31:58.111Z,461.70
2018-04-02T03:34:28.828Z,461.70
2018-04-02T03:36:58.376Z,461.70
2018-04-02T03:39:27.936Z,461.70
2018-04-02T03:41:57.754Z,461.70
2018-04-02T03:44:27.324Z,461.70
2018-04-02T03:46:58.512Z,461.70
2018-04-02T03:49:28.315Z,461.70
2018-04-02T03:51:57.924Z,461.70
2018-04-02T03:54:27.575Z,461.70
2018-04-02T03:56:58.600Z,461.70
2018-04-02T03:59:28.234Z,461.70
2018-04-02T04:01:57.864Z,461.70
2018-04-02T04:04:27.425Z,461.70
2018-04-02T04:06:57.064Z,461.70
2018-04-02T04:09:26.684Z,461.70
2018-04-02T04:11:56.585Z,461.70
2018-04-02T04:14:26.268Z,461.70
2018-04-02T04:16:57.351Z,461.70
2018-04-02T04:19:26.884Z,461.70
2018-04-02T04:21:56.538Z,461.70
2018-04-02T04:24:26.123Z,461.70
2018-04-02T04:26:56.367Z,461.70
2018-04-02T04:29:25.950Z,461.70
2018-04-02T04:31:57.131Z,461.70
2018-04-02T04:34:26.757Z,461.70
2018-04-02T04:36:56.367Z,461.70
2018-04-02T04:39:25.929Z,461.70
2018-04-02T04:41:57.028Z,461.70
2018-04-02T04:44:26.630Z,461.70
2018-04-02T04:46:56.589Z,461.70
2018-04-02T04:49:26.172Z,461.70
2018-04-02T04:51:55.919Z,461.70
2018-04-02T04:54:25.539Z,461.70
2018-04-02T04:56:55.244Z,461.70
2018-04-02T04:59:24.912Z,461.70
2018-04-02T05:01:54.552Z,461.70
2018-04-02T05:04:24.240Z,461.70
2018-04-02T05:06:54.207Z,461.70
2018-04-02T05:09:23.716Z,461.70
2018-04-02T05:11:53.264Z,461.70
2018-04-02T05:14:22.927Z,461.70
2018-04-02T05:16:52.533Z,461.70
2018-04-02T05:19:22.117Z,461.70
2018-04-02T05:21:51.801Z,461.70
2018-04-02T05:24:21.324Z,461.70
2018-04-02T05:26:51.203Z,461.70
2018-04-02T05:29:22.325Z,461.70
2018-04-02T05:31:52.095Z,461.70
2018-04-02T05:34:21.668Z,461.70
2018-04-02T05:36:51.285Z,461.70
2018-04-02T05:39:20.915Z,486.40
2018-04-02T05:41:50.472Z,461.70
2018-04-02T05:44:21.567Z,461.70
2018-04-02T05:46:51.187Z,486.40
2018-04-02T05:49:20.743Z,486.40
2018-04-02T05:51:51.823Z,486.40
2018-04-02T05:54:21.369Z,486.40
2018-04-02T05:56:51.036Z,486.40
2018-04-02T05:59:20.576Z,486.40
2018-04-02T06:01:50.173Z,461.70
2018-04-02T06:04:19.782Z,461.70
2018-04-02T06:06:49.444Z,461.70
2018-04-02T06:09:19.060Z,461.70
2018-04-02T06:11:48.847Z,461.70
2018-04-02T06:14:18.406Z,461.70
2018-04-02T06:16:48.028Z,461.70
2018-04-02T06:19:17.581Z,461.70
2018-04-02T06:21:47.135Z,461.70
2018-04-02T06:24:16.823Z,461.70
2018-04-02T06:26:46.476Z,461.70
2018-04-02T06:29:16.060Z,461.70
2018-04-02T06:31:45.655Z,461.70
2018-04-02T06:34:15.188Z,461.70
2018-04-02T06:36:44.928Z,461.70
2018-04-02T06:39:14.523Z,461.70
2018-04-02T06:41:45.689Z,461.70
2018-04-02T06:44:15.297Z,461.70
2018-04-02T06:46:44.841Z,461.70
2018-04-02T06:49:14.352Z,461.70
2018-04-02T06:51:43.953Z,461.70
2018-04-02T06:54:13.520Z,461.70
2018-04-02T06:56:43.100Z,461.70
2018-04-02T06:59:12.615Z,461.70
2018-04-02T07:01:42.154Z,461.70
2018-04-02T07:04:11.744Z,461.70
2018-04-02T07:06:41.367Z,461.70
2018-04-02T07:09:10.950Z,461.70
2018-04-02T07:11:40.507Z,461.70
2018-04-02T07:14:10.056Z,461.70
2018-04-02T07:16:39.617Z,461.70
2018-04-02T07:19:09.184Z,461.70
2018-04-02T07:21:38.735Z,461.70
2018-04-02T07:24:09.896Z,486.40
2018-04-02T07:26:39.456Z,486.40
2018-04-02T07:29:09.201Z,486.40
2018-04-02T07:31:40.340Z,486.40
2018-04-02T07:34:11.392Z,486.40
2018-04-02T07:36:41.068Z,486.40
2018-04-02T07:39:10.889Z,486.40
2018-04-02T07:41:40.525Z,486.40
2018-04-02T07:44:10.128Z,486.40
2018-04-02T07:46:39.663Z,486.40
2018-04-02T07:49:09.325Z,486.40
2018-04-02T07:51:40.484Z,486.40
2018-04-02T07:54:09.991Z,486.40
2018-04-02T07:56:39.708Z,486.40
2018-04-02T07:59:09.277Z,486.40
2018-04-02T08:01:39.991Z,486.50
2018-04-02T08:04:09.576Z,486.50
2018-04-02T08:06:39.156Z,486.50
2018-04-02T08:09:08.740Z,486.50
2018-04-02T08:11:38.327Z,486.60
2018-04-02T08:14:07.908Z,486.60
2018-04-02T08:16:37.595Z,486.60
2018-04-02T08:19:07.180Z,486.60
2018-04-02T08:21:36.757Z,486.60
2018-04-02T08:24:07.861Z,486.60
2018-04-02T08:26:37.537Z,486.60
2018-04-02T08:29:07.288Z,486.70
2018-04-02T08:31:36.850Z,486.70
2018-04-02T08:34:06.455Z,486.70
2018-04-02T08:36:36.009Z,486.70
2018-04-02T08:39:06.187Z,486.80
2018-04-02T08:41:35.776Z,486.80
2018-04-02T08:44:06.846Z,486.90
2018-04-02T08:46:36.433Z,486.90
2018-04-02T08:49:07.519Z,486.90
2018-04-02T08:51:37.075Z,487.00
2018-04-02T08:54:08.112Z,487.00
2018-04-02T08:56:39.269Z,487.00
2018-04-02T08:59:08.845Z,487.00
2018-04-02T09:01:39.909Z,487.00
2018-04-02T09:04:09.504Z,487.00
2018-04-02T09:06:40.535Z,487.00
2018-04-02T09:09:10.348Z,487.00
2018-04-02T09:11:41.416Z,487.00
2018-04-02T09:14:11.016Z,487.00
2018-04-02T09:16:42.412Z,487.00
2018-04-02T09:19:11.956Z,487.00
2018-04-02T09:21:43.020Z,487.10
2018-04-02T09:24:12.523Z,487.10
2018-04-02T09:26:42.209Z,487.10
2018-04-02T09:29:13.877Z,487.10
2018-04-02T09:31:43.587Z,487.10
2018-04-02T09:34:14.739Z,487.10
2018-04-02T09:36:44.288Z,487.10
2018-04-02T09:39:13.836Z,487.10
2018-04-02T09:41:44.912Z,487.10
2018-04-02T09:44:14.591Z,487.10
2018-04-02T09:46:44.324Z,487.10
2018-04-02T09:49:13.874Z,487.10
2018-04-02T09:51:43.457Z,487.10
2018-04-02T09:54:13.035Z,487.10
2018-04-02T09:56:42.628Z,487.10
2018-04-02T09:59:13.711Z,487.10
2018-04-02T10:01:43.343Z,487.10
2018-04-02T10:04:12.945Z,487.10
2018-04-02T10:06:42.544Z,487.10
2018-04-02T10:09:12.088Z,487.20
2018-04-02T10:11:41.687Z,487.20
2018-04-02T10:14:12.807Z,487.10
2018-04-02T10:16:42.372Z,487.10
2018-04-02T10:19:12.196Z,487.10
2018-04-02T10:21:41.723Z,487.10
2018-04-02T10:24:11.331Z,487.10
2018-04-02T10:26:40.920Z,487.10
2018-04-02T10:29:10.457Z,487.10
2018-04-02T10:31:40.157Z,487.10
2018-04-02T10:34:09.720Z,487.10
2018-04-02T10:36:40.767Z,487.10
2018-04-02T10:39:10.333Z,487.10
2018-04-02T10:41:40.204Z,487.10
2018-04-02T10:44:10.012Z,487.10
2018-04-02T10:46:39.623Z,487.10
2018-04-02T10:49:09.194Z,487.10
2018-04-02T10:51:38.772Z,487.10
2018-04-02T10:54:10.096Z,487.00
2018-04-02T10:56:41.249Z,487.10
2018-04-02T10:59:10.900Z,487.10
2018-04-02T11:01:40.566Z,487.10
2018-04-02T11:04:11.656Z,487.00
2018-04-02T11:06:41.257Z,487.10
2018-04-02T11:09:10.812Z,487.00
2018-04-02T11:11:40.656Z,487.00
2018-04-02T11:14:11.776Z,487.00
2018-04-02T11:16:42.924Z,487.10
2018-04-02T11:19:13.983Z,487.10
2018-04-02T11:21:45.132Z,487.10
2018-04-02T11:24:14.712Z,487.10
2018-04-02T11:26:44.277Z,487.10
2018-04-02T11:29:13.876Z,487.10
2018-04-02T11:31:43.432Z,487.10
2018-04-02T11:34:13.255Z,487.10
2018-04-02T11:36:44.312Z,487.10
2018-04-02T11:39:13.839Z,487.10
2018-04-02T11:41:43.527Z,487.10
2018-04-02T11:44:13.112Z,487.10
2018-04-02T11:46:44.210Z,487.10
2018-04-02T11:49:13.815Z,487.10
2018-04-02T11:51:43.328Z,487.10
2018-04-02T11:54:12.943Z,487.10
2018-04-02T11:56:42.591Z,487.10
2018-04-02T11:59:12.229Z,487.10
2018-04-02T12:01:41.804Z,487.10
2018-04-02T12:04:11.423Z,487.10
2018-04-02T12:06:40.996Z,487.10
2018-04-02T12:09:12.070Z,487.10
2018-04-02T12:11:41.650Z,487.10
2018-04-02T12:14:12.729Z,487.00
2018-04-02T12:16:42.276Z,487.00
2018-04-02T12:19:11.889Z,487.00
2018-04-02T12:21:42.922Z,486.90
2018-04-02T12:24:12.564Z,487.00
2018-04-02T12:26:42.166Z,486.90
2018-04-02T12:29:13.222Z,486.90
2018-04-02T12:31:42.731Z,486.90
2018-04-02T12:34:12.336Z,486.90
2018-04-02T12:36:41.979Z,486.90
2018-04-02T12:39:11.883Z,486.90
2018-04-02T12:41:41.626Z,486.90
2018-04-02T12:44:12.700Z,486.90
2018-04-02T12:46:42.240Z,486.90
2018-04-02T12:49:11.824Z,486.90
2018-04-02T12:51:41.513Z,486.90
2018-04-02T12:54:11.089Z,486.90
2018-04-02T12:56:40.684Z,486.90
2018-04-02T12:59:10.300Z,486.90
2018-04-02T13:01:41.730Z,486.90
2018-04-02T13:04:11.331Z,486.90
2018-04-02T13:06:42.435Z,486.90
2018-04-02T13:09:12.023Z,486.90
2018-04-02T13:11:43.068Z,486.90
2018-04-02T13:14:14.178Z,486.90
2018-04-02T13:16:43.801Z,486.90
2018-04-02T13:19:15.134Z,486.90
2018-04-02T13:21:44.714Z,486.90
2018-04-02T13:24:14.462Z,486.90
2018-04-02T13:26:44.060Z,486.90
2018-04-02T13:29:13.631Z,486.90
2018-04-02T13:31:43.199Z,486.80
2018-04-02T13:34:12.781Z,486.80
2018-04-02T13:36:43.944Z,486.80
2018-04-02T13:39:15.040Z,486.80
2018-04-02T13:41:44.636Z,486.90
2018-04-02T13:44:14.227Z,486.80
2018-04-02T13:46:44.100Z,486.80
2018-04-02T13:49:15.196Z,486.80
2018-04-02T13:51:44.767Z,486.80
2018-04-02T13:54:15.888Z,486.80
2018-04-02T13:56:45.456Z,486.80
2018-04-02T13:59:15.020Z,486.80
2018-04-02T14:01:44.613Z,486.80
2018-04-02T14:04:14.188Z,486.80
2018-04-02T14:06:43.776Z,486.80
2018-04-02T14:09:13.580Z,486.80
2018-04-02T14:11:44.160Z,486.80
2018-04-02T14:14:15.340Z,486.80
2018-04-02T14:16:44.904Z,486.80
2018-04-02T14:19:16.056Z,486.80
2018-04-02T14:21:45.662Z,486.80
2018-04-02T14:24:16.753Z,486.80
2018-04-02T14:26:46.310Z,486.80
2018-04-02T14:29:16.057Z,486.80
2018-04-02T14:31:45.602Z,486.80
2018-04-02T14:34:15.164Z,486.80
2018-04-02T14:36:44.743Z,486.80
2018-04-02T14:39:14.357Z,486.80
2018-04-02T14:41:43.964Z,486.80
2018-04-02T14:44:15.014Z,486.80
2018-04-02T14:46:44.580Z,486.80
2018-04-02T14:49:14.239Z,486.80
2018-04-02T14:51:43.847Z,486.80
2018-04-02T14:54:13.451Z,486.80
2018-04-02T14:56:43.011Z,486.80
2018-04-02T14:59:12.627Z,486.80
2018-04-02T15:01:43.754Z,486.80
2018-04-02T15:04:14.869Z,486.80
2018-04-02T15:06:44.417Z,486.80
2018-04-02T15:09:15.573Z,486.80
2018-04-02T15:11:46.664Z,486.80
2018-04-02T15:14:16.249Z,486.80
2018-04-02T15:16:45.863Z,486.80
2018-04-02T15:19:15.466Z,486.80
2018-04-02T15:21:45.075Z,486.80
2018-04-02T15:24:14.952Z,486.70
2018-04-02T15:26:46.019Z,486.70
2018-04-02T15:29:15.629Z,486.80
2018-04-02T15:31:46.869Z,486.70
2018-04-02T15:34:16.475Z,486.80
2018-04-02T15:36:46.142Z,486.70
2018-04-02T15:39:15.818Z,486.70
2018-04-02T15:41:45.564Z,486.70
2018-04-02T15:44:15.111Z,486.70
2018-04-02T15:46:44.733Z,486.70
2018-04-02T15:49:14.396Z,486.70
2018-04-02T15:51:45.536Z,486.70
2018-04-02T15:54:16.613Z,486.70
2018-04-02T15:56:46.292Z,486.70
2018-04-02T15:59:18.414Z,486.70
2018-04-02T16:01:48.219Z,486.70
2018-04-02T16:04:17.843Z,486.70
2018-04-02T16:06:48.911Z,486.70
2018-04-02T16:09:20.149Z,486.70
2018-04-02T16:11:51.423Z,486.70
2018-04-02T16:14:21.313Z,486.70
2018-04-02T16:16:52.493Z,486.70
2018-04-02T16:19:22.259Z,486.70
2018-04-02T16:21:53.464Z,486.70
2018-04-02T16:24:23.503Z,486.70
2018-04-02T16:26:53.097Z,486.70
2018-04-02T16:29:22.828Z,486.70
2018-04-02T16:31:54.116Z,486.80
2018-04-02T16:34:24.084Z,486.80
2018-04-02T16:36:53.975Z,486.80
2018-04-02T16:39:26.212Z,486.80
2018-04-02T16:41:57.617Z,486.80
2018-04-02T16:44:27.380Z,486.80
2018-04-02T16:46:57.555Z,486.80
2018-04-02T16:49:27.369Z,486.80
2018-04-02T16:51:56.971Z,486.80
2018-04-02T16:54:28.096Z,486.80
2018-04-02T16:56:57.622Z,486.80
2018-04-02T16:59:28.688Z,486.80
2018-04-02T17:01:58.312Z,486.80
2018-04-02T17:04:27.865Z,486.80
2018-04-02T17:06:57.724Z,486.80
2018-04-02T17:09:27.309Z,486.80
2018-04-02T17:11:56.976Z,486.80
2018-04-02T17:14:26.540Z,486.80
2018-04-02T17:16:56.072Z,486.70
2018-04-02T17:19:25.784Z,486.70
2018-04-02T17:21:57.186Z,486.70
2018-04-02T17:24:26.904Z,486.70
2018-04-02T17:26:56.520Z,486.80
2018-04-02T17:29:26.075Z,486.70
2018-04-02T17:31:55.715Z,486.70
2018-04-02T17:34:26.784Z,486.70
2018-04-02T17:36:56.508Z,486.70
2018-04-02T17:39:26.119Z,486.70
2018-04-02T17:41:55.857Z,486.70
2018-04-02T17:44:25.443Z,486.70
2018-04-02T17:46:55.049Z,486.70
2018-04-02T17:49:24.658Z,486.70
2018-04-02T17:51:54.356Z,486.70
2018-04-02T17:54:23.983Z,486.70
2018-04-02T17:56:54.051Z,486.70
2018-04-02T17:59:23.602Z,486.60
2018-04-02T18:01:53.231Z,486.40
2018-04-02T18:04:24.913Z,461.70
2018-04-02T18:06:54.484Z,461.70
2018-04-02T18:09:24.377Z,461.60
2018-04-02T18:11:54.208Z,461.50
2018-04-02T18:14:24.232Z,461.50
2018-04-02T18:16:53.843Z,461.60
2018-04-02T18:19:25.239Z,461.60
2018-04-02T18:21:54.937Z,461.60
2018-04-02T18:24:24.620Z,461.60
2018-04-02T18:26:55.813Z,461.70
2018-04-02T18:29:25.440Z,461.70
2018-04-02T18:31:55.072Z,461.70
2018-04-02T18:34:26.615Z,461.70
2018-04-02T18:36:58.234Z,461.70
2018-04-02T18:39:29.004Z,461.70
2018-04-02T18:41:58.920Z,461.70
2018-04-02T18:44:30.113Z,461.70
2018-04-02T18:47:01.308Z,461.70
2018-04-02T18:49:32.439Z,461.70
2018-04-02T18:52:03.575Z,461.70
2018-04-02T18:54:33.272Z,486.40
2018-04-02T18:57:02.920Z,461.70
2018-04-02T18:59:35.645Z,486.40
2018-04-02T19:02:05.678Z,486.40
2018-04-02T19:04:36.854Z,486.40
2018-04-02T19:07:07.901Z,486.40
2018-04-02T19:09:37.556Z,486.40
2018-04-02T19:12:07.212Z,486.40
2018-04-02T19:14:38.270Z,486.40
2018-04-02T19:17:07.870Z,486.40
2018-04-02T19:19:37.528Z,486.40
2018-04-02T19:22:08.784Z,486.40
2018-04-02T19:24:39.912Z,486.40
2018-04-02T19:27:09.484Z,486.40
2018-04-02T19:29:39.350Z,486.40
2018-04-02T19:32:08.994Z,486.40
2018-04-02T19:34:38.639Z,486.40
2018-04-02T19:37:08.267Z,486.40
2018-04-02T19:39:37.796Z,486.40
2018-04-02T19:42:08.916Z,486.40
2018-04-02T19:44:40.304Z,486.40
2018-04-02T19:47:11.320Z,486.40
2018-04-02T19:49:41.025Z,486.40
2018-04-02T19:52:12.216Z,486.40
2018-04-02T19:54:41.868Z,486.40
2018-04-02T19:57:11.413Z,486.40
2018-04-02T19:59:40.989Z,486.40
2018-04-02T20:02:12.176Z,486.40
2018-04-02T20:04:41.852Z,486.50
2018-04-02T20:07:11.565Z,486.50
2018-04-02T20:09:42.642Z,486.50
2018-04-02T20:12:12.416Z,486.50
2018-04-02T20:14:43.581Z,486.50
2018-04-02T20:17:13.266Z,486.50
2018-04-02T20:19:44.577Z,486.50
2018-04-02T20:22:14.573Z,486.50
2018-04-02T20:24:44.225Z,486.50
2018-04-02T20:27:14.019Z,486.50
2018-04-02T20:29:43.799Z,486.50
2018-04-02T20:32:13.429Z,486.50
2018-04-02T20:34:43.075Z,486.50
2018-04-02T20:37:14.273Z,486.50
2018-04-02T20:39:44.171Z,486.50
2018-04-02T20:42:13.836Z,486.50
2018-04-02T20:44:45.008Z,486.50
2018-04-02T20:47:14.672Z,486.50
2018-04-02T20:49:45.807Z,486.50
2018-04-02T20:52:16.932Z,486.50
2018-04-02T20:54:46.460Z,486.50
2018-04-02T20:57:16.043Z,486.50
2018-04-02T20:59:45.664Z,486.50
2018-04-02T21:02:17.884Z,486.50
2018-04-02T21:04:47.501Z,486.50
2018-04-02T21:07:17.151Z,486.50
2018-04-02T21:09:46.725Z,486.50
2018-04-02T21:12:20.292Z,486.50
2018-04-02T21:14:49.868Z,486.50
2018-04-02T21:17:19.395Z,486.50
2018-04-02T21:19:49.034Z,486.50
2018-04-02T21:22:18.616Z,486.50
2018-04-02T21:24:48.204Z,486.50
2018-04-02T21:27:19.333Z,486.50
2018-04-02T21:29:50.436Z,486.50
2018-04-02T21:32:20.300Z,486.50
2018-04-02T21:34:51.379Z,486.50
2018-04-02T21:37:20.942Z,486.50
2018-04-02T21:39:52.056Z,486.50
2018-04-02T21:42:23.141Z,486.50
2018-04-02T21:44:52.757Z,486.50
2018-04-02T21:47:22.308Z,486.50
2018-04-02T21:49:51.902Z,486.50
2018-04-02T21:52:21.449Z,486.50
2018-04-02T21:54:52.575Z,486.50
2018-04-02T21:57:22.142Z,486.50
2018-04-02T21:59:52.592Z,486.50
2018-04-02T22:02:22.219Z,486.50
2018-04-02T22:04:51.749Z,486.50
2018-04-02T22:07:21.558Z,486.50
2018-04-02T22:09:51.202Z,486.50
2018-04-02T22:12:21.077Z,486.50
2018-04-02T22:14:52.637Z,486.50
2018-04-02T22:17:23.199Z,486.50
2018-04-02T22:19:54.425Z,486.50
2018-04-02T22:22:24.002Z,486.50
2018-04-02T22:24:55.484Z,486.50
2018-04-02T22:27:25.113Z,486.50
2018-04-02T22:29:54.690Z,486.50
2018-04-02T22:32:24.329Z,486.50
2018-04-02T22:34:54.013Z,486.50
2018-04-02T22:37:23.694Z,486.50
2018-04-02T22:39:54.992Z,486.50
2018-04-02T22:42:27.199Z,486.50
2018-04-02T22:44:57.148Z,486.50
2018-04-02T22:47:26.692Z,486.50
2018-04-02T22:49:56.388Z,486.50
2018-04-02T22:52:26.153Z,486.60
2018-04-02T22:54:57.316Z,486.50
2018-04-02T22:57:27.011Z,486.50
2018-04-02T22:59:57.057Z,486.50
2018-04-02T23:02:26.683Z,486.50
2018-04-02T23:04:56.332Z,486.50
2018-04-02T23:07:25.977Z,486.50
2018-04-02T23:09:55.596Z,486.50
2018-04-02T23:12:25.479Z,486.50
2018-04-02T23:14:55.132Z,486.50
2018-04-02T23:17:24.792Z,486.50
2018-04-02T23:19:54.493Z,486.50
2018-04-02T23:22:28.424Z,486.50
2018-04-02T23:24:57.992Z,486.50
2018-04-02T23:27:29.061Z,486.50
2018-04-02T23:29:58.644Z,486.50
2018-04-02T23:32:28.296Z,486.50
2018-04-02T23:34:57.956Z,486.50
2018-04-02T23:37:27.676Z,486.50
2018-04-02T23:39:57.311Z,486.50
2018-04-02T23:42:26.960Z,486.50
2018-04-02T23:44:58.080Z,486.50
2018-04-02T23:47:27.698Z,486.50
2018-04-02T23:49:57.440Z,486.60
2018-04-02T23:52:28.898Z,486.50
2018-04-02T23:54:58.485Z,486.50
2018-04-02T23:57:28.060Z,486.50
2018-04-02T23:59:57.656Z,486.50
